Time;durP1;ratioP1;P1;durP2;ratioP2;P2;SDS_P1;SDS_P2;PMS_P1;PMS_P2;Temp;Humidity;BMP_temperature;BMP_pressure;BME280_temperature;BME280_humidity;BME280_pressure;Samples;Min_cycle;Max_cycle;Signal;HPM_P1;HPM_P2
2022/12/27 00:00:57;;;;;;;6.00;1.63;;;;;;;;;;5075764;28;20445;-70
2022/12/27 00:03:37;;;;;;;4.47;2.20;;;;;;;;;;5078109;28;20445;-70
2022/12/27 00:06:13;;;;;;;2.80;1.00;;;;;;;;;;5075632;28;20448;-72
2022/12/27 00:08:51;;;;;;;4.17;1.03;;;;;;;;;;5080901;28;20440;-72
2022/12/27 00:11:25;;;;;;;2.90;0.97;;;;;;;;;;5095732;28;20487;-70
2022/12/27 00:14:10;;;;;;;7.77;1.40;;;;;;;;;;5096034;28;20455;-71
2022/12/27 00:16:46;;;;;;;8.30;1.50;;;;;;;;;;5085262;28;20456;-71
2022/12/27 00:19:15;;;;;;;6.50;2.07;;;;;;;;;;5073204;28;20481;-70
2022/12/27 00:21:53;;;;;;;2.77;1.50;;;;;;;;;;5055941;28;20511;-71
2022/12/27 00:24:20;;;;;;;8.23;1.37;;;;;;;;;;5055355;28;20761;-71
2022/12/27 00:27:07;;;;;;;;;;;;;;;;;;;;;
2022/12/27 00:29:41;;;;;;;5.57;1.63;;;;;;;;;;5085189;28;20447;-71
2022/12/27 00:32:22;;;;;;;4.30;1.60;;;;;;;;;;5092468;28;20778;-71
2022/12/27 00:34:52;;;;;;;4.90;1.20;;;;;;;;;;5089806;28;20459;-70
2022/12/27 00:37:20;;;;;;;3.53;1.13;;;;;;;;;;5095588;28;20523;-70
2022/12/27 00:39:48;;;;;;;8.80;1.40;;;;;;;;;;5095946;28;20490;-70
2022/12/27 00:42:16;;;;;;;9.50;2.07;;;;;;;;;;5096502;28;20538;-70
2022/12/27 00:44:44;;;;;;;2.50;1.53;;;;;;;;;;5095948;28;20447;-71
2022/12/27 00:47:12;;;;;;;3.70;1.60;;;;;;;;;;5094044;28;20524;-71
2022/12/27 00:49:43;;;;;;;4.37;1.80;;;;;;;;;;5075546;28;20499;-71
2022/12/27 00:52:20;;;;;;;2.60;1.53;;;;;;;;;;5075920;28;20492;-71
2022/12/27 00:54:56;;;;;;;7.07;1.90;;;;;;;;;;5054762;28;20480;-71
2022/12/27 00:57:24;;;;;;;11.53;2.23;;;;;;;;;;5055950;28;20542;-71
2022/12/27 00:59:51;;;;;;;3.10;1.13;;;;;;;;;;5055222;28;20469;-71
2022/12/27 01:02:20;;;;;;;3.57;0.83;;;;;;;;;;5055227;28;20732;-71
2022/12/27 01:04:48;;;;;;;6.03;2.10;;;;;;;;;;5056026;28;20534;-71
2022/12/27 01:07:20;;;;;;;2.87;1.13;;;;;;;;;;5055277;28;20499;-70
2022/12/27 01:09:51;;;;;;;4.87;2.10;;;;;;;;;;5055593;28;20447;-70
2022/12/27 01:12:19;;;;;;;1.80;0.83;;;;;;;;;;5058259;28;20496;-71
2022/12/27 01:14:46;;;;;;;7.20;2.10;;;;;;;;;;5059250;28;20449;-70
2022/12/27 01:17:14;;;;;;;2.40;0.93;;;;;;;;;;5059478;28;20774;-71
2022/12/27 01:19:43;;;;;;;8.60;1.77;;;;;;;;;;5058804;28;20468;-71
2022/12/27 01:22:11;;;;;;;5.10;1.70;;;;;;;;;;5058992;28;20458;-71
2022/12/27 01:24:41;;;;;;;2.30;1.20;;;;;;;;;;5058868;28;20465;-70
2022/12/27 01:27:08;;;;;;;1.97;1.00;;;;;;;;;;5059111;28;20457;-71
2022/12/27 01:29:36;;;;;;;1.70;0.93;;;;;;;;;;5058783;28;20442;-70
2022/12/27 01:32:06;;;;;;;2.77;0.90;;;;;;;;;;5060809;28;20495;-71
2022/12/27 01:34:33;;;;;;;2.80;1.73;;;;;;;;;;5078062;28;20811;-71
2022/12/27 01:37:01;;;;;;;4.80;1.80;;;;;;;;;;5078355;28;20463;-70
2022/12/27 01:39:29;;;;;;;4.53;1.63;;;;;;;;;;5077789;28;20449;-71
2022/12/27 01:45:02;;;;;;;2.17;1.00;;;;;;;;;;5058693;28;20604;-70
2022/12/27 01:47:33;;;;;;;2.80;1.60;;;;;;;;;;5058645;28;20454;-71
2022/12/27 01:50:17;;;;;;;3.70;1.10;;;;;;;;;;5058439;28;20939;-70
2022/12/27 01:52:47;;;;;;;3.77;1.30;;;;;;;;;;5058349;28;20905;-70
2022/12/27 01:55:21;;;;;;;4.90;1.37;;;;;;;;;;5058787;28;21087;-70
2022/12/27 01:57:52;;;;;;;2.60;1.10;;;;;;;;;;5058884;28;20491;-70
2022/12/27 02:00:20;;;;;;;3.20;1.03;;;;;;;;;;5058661;28;20453;-70
2022/12/27 02:02:50;;;;;;;5.23;1.47;;;;;;;;;;5058650;28;20737;-70
2022/12/27 02:05:18;;;;;;;2.43;1.23;;;;;;;;;;5070412;28;20449;-70
2022/12/27 02:07:54;;;;;;;4.27;1.57;;;;;;;;;;5078464;28;20526;-70
2022/12/27 02:10:21;;;;;;;4.37;1.43;;;;;;;;;;5077881;28;20436;-71
2022/12/27 02:12:53;;;;;;;1.50;0.80;;;;;;;;;;5078415;28;20491;-71
2022/12/27 02:15:22;;;;;;;7.23;2.10;;;;;;;;;;5077604;28;20522;-71
2022/12/27 02:17:53;;;;;;;2.37;1.53;;;;;;;;;;5078170;28;20555;-71
2022/12/27 02:20:22;;;;;;;23.73;2.00;;;;;;;;;;5077631;28;20529;-71
2022/12/27 02:26:03;;;;;;;4.70;1.77;;;;;;;;;;5077360;28;20551;-71
2022/12/27 02:28:39;;;;;;;5.73;2.07;;;;;;;;;;5077860;28;20539;-72
2022/12/27 02:31:11;;;;;;;1.73;0.93;;;;;;;;;;5077751;28;20444;-71
2022/12/27 02:33:43;;;;;;;2.27;1.30;;;;;;;;;;5075315;28;20484;-71
2022/12/27 02:36:13;;;;;;;5.30;2.10;;;;;;;;;;5057708;28;20460;-71
2022/12/27 02:38:44;;;;;;;3.77;1.23;;;;;;;;;;5057588;28;20464;-71
2022/12/27 02:55:28;;;;;;;3.53;1.27;;;;;;;;;;5057182;28;20483;-71
2022/12/27 02:58:01;;;;;;;7.63;2.57;;;;;;;;;;5072362;28;20467;-70
2022/12/27 03:03:30;;;;;;;1.80;1.10;;;;;;;;;;5076864;28;20434;-70
2022/12/27 03:09:08;;;;;;;5.90;1.30;;;;;;;;;;5056071;28;20530;-70
2022/12/27 03:17:27;;;;;;;4.60;1.60;;;;;;;;;;5076788;28;20897;-70
2022/12/27 03:25:31;;;;;;;3.00;2.10;;;;;;;;;;5056697;28;20425;-70
2022/12/27 03:33:33;;;;;;;2.80;1.47;;;;;;;;;;5058601;28;20649;-71
2022/12/27 03:38:55;;;;;;;5.90;1.87;;;;;;;;;;5076559;28;20431;-70
2022/12/27 03:44:24;;;;;;;10.63;2.00;;;;;;;;;;5076581;28;20510;-70
2022/12/27 03:46:53;;;;;;;7.20;2.03;;;;;;;;;;5076438;28;20535;-71
2022/12/27 03:49:22;;;;;;;3.33;1.30;;;;;;;;;;5058662;28;20730;-70
2022/12/27 03:51:59;;;;;;;6.17;2.00;;;;;;;;;;5056630;28;20884;-71
2022/12/27 03:54:43;;;;;;;2.93;1.20;;;;;;;;;;5056595;28;20728;-71
2022/12/27 03:57:13;;;;;;;6.43;2.27;;;;;;;;;;5055982;28;20453;-70
2022/12/27 03:59:45;;;;;;;2.60;1.20;;;;;;;;;;5065871;28;20472;-70
2022/12/27 04:02:12;;;;;;;3.40;1.83;;;;;;;;;;5076295;28;20448;-70
2022/12/27 04:04:40;;;;;;;3.20;1.60;;;;;;;;;;5076272;28;20465;-70
2022/12/27 04:07:09;;;;;;;3.57;1.53;;;;;;;;;;5076130;28;20881;-70
2022/12/27 04:34:44;;;;;;;2.43;1.00;;;;;;;;;;5076121;28;20486;-71
2022/12/27 04:37:13;;;;;;;2.20;1.37;;;;;;;;;;5076013;28;20452;-71
2022/12/27 04:54:55;;;;;;;2.40;1.57;;;;;;;;;;5076281;28;20486;-71
2022/12/27 04:56:32;;;;;;;3.00;2.30;;;;;;;;;;5079113;28;20420;-71
2022/12/27 05:02:04;;;;;;;3.30;2.73;;;;;;;;;;5064612;28;20985;-71
2022/12/27 05:04:31;;;;;;;4.67;1.93;;;;;;;;;;5079729;28;20709;-70
2022/12/27 05:13:58;;;;;;;9.37;2.17;;;;;;;;;;5079606;28;20459;-70
2022/12/27 05:15:22;;;;;;;7.67;2.60;;;;;;;;;;5079133;28;20416;-70
2022/12/27 05:17:49;;;;;;;3.93;2.33;;;;;;;;;;5078187;28;20463;-70
2022/12/27 05:20:17;;;;;;;3.83;1.80;;;;;;;;;;5079285;28;20491;-71
2022/12/27 05:25:37;;;;;;;8.97;1.73;;;;;;;;;;5078526;28;20420;-71
2022/12/27 05:28:07;;;;;;;2.67;2.00;;;;;;;;;;5079119;28;20466;-71
2022/12/27 05:30:35;;;;;;;3.23;2.20;;;;;;;;;;5078682;28;20456;-71
2022/12/27 05:33:03;;;;;;;4.63;2.83;;;;;;;;;;5078919;28;20554;-71
2022/12/27 05:35:31;;;;;;;2.93;2.10;;;;;;;;;;5078576;28;20464;-71
2022/12/27 05:37:58;;;;;;;6.43;2.33;;;;;;;;;;5078728;28;20556;-71
2022/12/27 05:40:26;;;;;;;2.77;1.37;;;;;;;;;;5078850;28;21067;-71
2022/12/27 05:42:54;;;;;;;5.17;1.33;;;;;;;;;;5078503;28;20460;-71
2022/12/27 05:45:23;;;;;;;9.47;2.33;;;;;;;;;;5078857;28;20453;-71
2022/12/27 05:47:50;;;;;;;4.10;3.13;;;;;;;;;;5078752;28;20494;-71
2022/12/27 05:50:18;;;;;;;10.00;3.67;;;;;;;;;;5076081;28;20461;-71
2022/12/27 05:52:46;;;;;;;5.93;2.30;;;;;;;;;;5058214;28;20488;-71
2022/12/27 05:55:14;;;;;;;12.20;4.20;;;;;;;;;;5061860;28;20760;-71
2022/12/27 05:57:41;;;;;;;5.53;2.73;;;;;;;;;;5057907;28;20446;-71
2022/12/27 06:00:10;;;;;;;10.90;3.70;;;;;;;;;;5058440;28;20854;-71
2022/12/27 06:02:40;;;;;;;8.90;3.93;;;;;;;;;;5057894;28;20442;-71
2022/12/27 06:05:08;;;;;;;3.50;1.70;;;;;;;;;;5057955;28;20757;-71
2022/12/27 06:07:36;;;;;;;4.10;3.10;;;;;;;;;;5058133;28;20441;-71
2022/12/27 06:10:04;;;;;;;9.17;3.40;;;;;;;;;;5057650;28;20862;-71
2022/12/27 06:12:32;;;;;;;5.50;3.80;;;;;;;;;;5058215;28;20450;-71
2022/12/27 06:15:00;;;;;;;2.67;2.13;;;;;;;;;;5058496;28;20461;-71
2022/12/27 06:17:27;;;;;;;7.83;2.10;;;;;;;;;;5057611;28;20870;-71
2022/12/27 06:19:56;;;;;;;7.80;2.37;;;;;;;;;;5057764;28;20717;-71
2022/12/27 06:22:24;;;;;;;4.43;1.70;;;;;;;;;;5057692;28;20434;-71
2022/12/27 06:24:51;;;;;;;6.80;3.60;;;;;;;;;;5056786;28;20846;-71
2022/12/27 06:27:19;;;;;;;6.30;3.10;;;;;;;;;;5057980;28;20456;-71
2022/12/27 06:29:50;;;;;;;7.93;4.20;;;;;;;;;;5057325;28;20464;-71
2022/12/27 06:32:18;;;;;;;5.63;3.00;;;;;;;;;;5057951;28;20449;-71
2022/12/27 06:34:48;;;;;;;7.73;3.40;;;;;;;;;;5056879;28;20481;-71
2022/12/27 06:37:18;;;;;;;3.93;1.90;;;;;;;;;;5056527;28;20461;-71
2022/12/27 06:39:45;;;;;;;4.50;2.40;;;;;;;;;;5057284;28;20450;-71
2022/12/27 06:42:13;;;;;;;7.50;4.30;;;;;;;;;;5056023;28;20888;-71
2022/12/27 06:44:40;;;;;;;4.50;1.77;;;;;;;;;;5056818;28;20544;-71
2022/12/27 06:47:08;;;;;;;3.13;1.87;;;;;;;;;;5057487;28;20453;-71
2022/12/27 06:49:35;;;;;;;6.43;4.00;;;;;;;;;;5056375;28;21010;-71
2022/12/27 06:52:03;;;;;;;9.23;3.00;;;;;;;;;;5056647;28;20441;-71
2022/12/27 06:54:35;;;;;;;6.50;2.60;;;;;;;;;;5055966;28;20572;-71
2022/12/27 06:57:13;;;;;;;5.53;3.13;;;;;;;;;;5056921;28;20822;-72
2022/12/27 06:59:41;;;;;;;5.10;2.20;;;;;;;;;;5056801;28;20449;-71
2022/12/27 07:02:12;;;;;;;10.90;3.70;;;;;;;;;;5055950;28;20537;-69
2022/12/27 07:04:39;;;;;;;7.53;3.30;;;;;;;;;;5056404;28;20536;-71
2022/12/27 07:07:07;;;;;;;6.20;2.10;;;;;;;;;;5064617;28;20574;-71
2022/12/27 07:09:36;;;;;;;3.10;2.50;;;;;;;;;;5074156;28;20465;-71
2022/12/27 07:12:04;;;;;;;2.83;2.13;;;;;;;;;;5076782;28;20448;-71
2022/12/27 07:14:31;;;;;;;5.67;3.07;;;;;;;;;;5057160;28;20500;-71
2022/12/27 07:16:59;;;;;;;3.93;2.43;;;;;;;;;;5055321;28;20458;-71
2022/12/27 07:19:29;;;;;;;5.60;2.93;;;;;;;;;;5056104;28;20469;-71
2022/12/27 07:21:57;;;;;;;6.77;3.20;;;;;;;;;;5056226;28;20456;-71
2022/12/27 07:24:24;;;;;;;5.07;3.37;;;;;;;;;;5055682;28;20448;-71
2022/12/27 07:26:54;;;;;;;7.40;4.13;;;;;;;;;;5055849;28;20472;-71
2022/12/27 07:29:22;;;;;;;6.30;2.80;;;;;;;;;;5055603;28;20453;-71
2022/12/27 07:31:49;;;;;;;6.70;3.10;;;;;;;;;;5055106;28;20568;-71
2022/12/27 07:34:17;;;;;;;5.37;2.47;;;;;;;;;;5059350;28;20503;-71
2022/12/27 07:36:45;;;;;;;5.17;4.67;;;;;;;;;;5075654;28;20849;-72
2022/12/27 07:39:13;;;;;;;12.13;3.87;;;;;;;;;;5067864;28;20472;-70
2022/12/27 07:41:41;;;;;;;7.13;4.50;;;;;;;;;;5056288;28;20503;-71
2022/12/27 07:44:10;;;;;;;7.00;3.00;;;;;;;;;;5055726;28;20544;-71
2022/12/27 07:46:44;;;;;;;5.23;2.87;;;;;;;;;;5056531;28;20457;-71
2022/12/27 07:49:13;;;;;;;3.93;1.37;;;;;;;;;;5058627;28;20529;-71
2022/12/27 07:51:43;;;;;;;4.03;2.03;;;;;;;;;;5077149;28;20886;-71
2022/12/27 07:54:13;;;;;;;5.07;2.73;;;;;;;;;;5058686;28;20507;-70
2022/12/27 07:56:41;;;;;;;4.37;3.10;;;;;;;;;;5055480;28;20486;-70
2022/12/27 07:59:18;;;;;;;5.20;2.97;;;;;;;;;;5061477;28;20460;-73
2022/12/27 08:02:05;;;;;;;4.63;3.27;;;;;;;;;;5074273;28;20460;-70
2022/12/27 08:04:37;;;;;;;5.30;3.10;;;;;;;;;;5059783;28;20850;-71
2022/12/27 08:07:09;;;;;;;3.30;2.00;;;;;;;;;;5062795;28;20444;-71
2022/12/27 08:09:38;;;;;;;12.90;3.80;;;;;;;;;;5059270;28;20465;-71
2022/12/27 08:12:06;;;;;;;2.67;2.17;;;;;;;;;;5055143;28;20475;-69
2022/12/27 08:14:36;;;;;;;6.33;4.70;;;;;;;;;;5060168;28;20563;-71
2022/12/27 08:17:06;;;;;;;3.90;2.83;;;;;;;;;;5065860;28;20491;-71
2022/12/27 08:19:35;;;;;;;10.73;4.53;;;;;;;;;;5061141;28;20555;-69
2022/12/27 08:22:09;;;;;;;6.40;3.00;;;;;;;;;;5079302;28;20753;-69
2022/12/27 08:24:43;;;;;;;3.70;2.70;;;;;;;;;;5058216;28;20745;-72
2022/12/27 08:27:14;;;;;;;4.10;2.40;;;;;;;;;;5060408;28;20575;-71
2022/12/27 08:30:01;;;;;;;7.63;3.60;;;;;;;;;;5065897;28;20866;-71
2022/12/27 08:32:30;;;;;;;3.77;2.90;;;;;;;;;;5057736;28;20897;-71
2022/12/27 08:34:59;;;;;;;5.50;3.80;;;;;;;;;;5056774;28;20616;-71
2022/12/27 08:37:28;;;;;;;10.43;2.17;;;;;;;;;;5059912;28;20465;-70
2022/12/27 08:39:56;;;;;;;4.13;2.77;;;;;;;;;;5068855;28;20550;-70
2022/12/27 08:42:27;;;;;;;5.57;2.90;;;;;;;;;;5061114;28;20547;-70
2022/12/27 08:44:57;;;;;;;9.13;4.40;;;;;;;;;;5074966;28;20492;-71
2022/12/27 08:47:25;;;;;;;8.80;4.90;;;;;;;;;;5059690;28;20476;-70
2022/12/27 08:49:52;;;;;;;4.80;3.43;;;;;;;;;;5058751;28;20476;-70
2022/12/27 08:52:21;;;;;;;4.43;2.73;;;;;;;;;;5057643;28;20460;-70
2022/12/27 08:54:48;;;;;;;6.70;3.60;;;;;;;;;;5061215;28;20571;-70
2022/12/27 08:57:16;;;;;;;7.70;2.60;;;;;;;;;;5071627;28;20775;-70
2022/12/27 08:59:49;;;;;;;7.80;5.07;;;;;;;;;;5062361;28;20461;-70
2022/12/27 09:02:23;;;;;;;7.60;3.77;;;;;;;;;;5085140;28;20447;-71
2022/12/27 09:04:53;;;;;;;4.83;4.07;;;;;;;;;;5072636;28;20470;-71
2022/12/27 09:07:21;;;;;;;6.33;1.70;;;;;;;;;;5058548;28;20725;-70
2022/12/27 09:09:48;;;;;;;6.27;3.87;;;;;;;;;;5058056;28;20464;-70
2022/12/27 09:12:21;;;;;;;4.60;2.70;;;;;;;;;;5063935;28;20437;-71
2022/12/27 09:14:52;;;;;;;8.03;2.80;;;;;;;;;;5065285;28;20967;-70
2022/12/27 09:17:24;;;;;;;3.77;2.40;;;;;;;;;;5060972;28;20477;-70
2022/12/27 09:19:55;;;;;;;14.50;5.13;;;;;;;;;;5059158;28;20929;-70
2022/12/27 09:22:22;;;;;;;3.33;2.70;;;;;;;;;;5059899;28;20559;-69
2022/12/27 09:24:50;;;;;;;6.00;4.17;;;;;;;;;;5074032;28;20463;-69
2022/12/27 09:27:21;;;;;;;11.03;5.80;;;;;;;;;;5096823;28;20495;-69
2022/12/27 09:29:54;;;;;;;9.03;5.80;;;;;;;;;;5058991;28;20472;-69
2022/12/27 09:32:26;;;;;;;6.37;4.77;;;;;;;;;;5096118;28;20720;-71
2022/12/27 09:35:01;;;;;;;6.70;3.83;;;;;;;;;;5078269;28;20918;-70
2022/12/27 09:37:30;;;;;;;7.27;3.67;;;;;;;;;;5078718;28;20469;-70
2022/12/27 09:39:58;;;;;;;5.77;3.87;;;;;;;;;;5059839;28;20541;-70
2022/12/27 09:43:10;;;;;;;;;;;;;;;;;;;;;
2022/12/27 09:45:36;;;;;;;9.70;2.63;;;;;;;;;;5058216;28;20990;-70
2022/12/27 09:48:07;;;;;;;9.10;3.70;;;;;;;;;;5057290;28;20485;-69
2022/12/27 09:50:51;;;;;;;6.60;3.93;;;;;;;;;;5062067;28;20538;-69
2022/12/27 09:53:23;;;;;;;6.47;3.50;;;;;;;;;;5055442;28;20535;-70
2022/12/27 09:55:52;;;;;;;5.50;2.10;;;;;;;;;;5063255;28;20485;-69
2022/12/27 09:58:50;;;;;;;7.70;2.80;;;;;;;;;;5058060;28;20449;-71
2022/12/27 10:04:35;;;;;;;9.10;3.60;;;;;;;;;;5033598;28;20544;-70
2022/12/27 10:07:18;;;;;;;5.53;4.00;;;;;;;;;;5060319;28;20514;-70
2022/12/27 10:10:00;;;;;;;9.63;3.70;;;;;;;;;;5073205;28;20796;-70
2022/12/27 10:12:46;;;;;;;7.03;3.17;;;;;;;;;;5060771;28;20467;-70
2022/12/27 10:15:25;;;;;;;2.63;2.17;;;;;;;;;;5060830;28;20507;-71
2022/12/27 10:18:03;;;;;;;22.93;5.43;;;;;;;;;;5055786;28;20457;-71
2022/12/27 10:20:43;;;;;;;9.90;2.80;;;;;;;;;;5066709;28;20468;-70
2022/12/27 10:23:17;;;;;;;7.00;2.63;;;;;;;;;;5058278;28;20984;-69
2022/12/27 10:25:48;;;;;;;3.20;2.00;;;;;;;;;;5058297;28;20522;-71
2022/12/27 10:31:11;;;;;;;4.47;1.53;;;;;;;;;;5058399;28;20438;-71
2022/12/27 10:33:58;;;;;;;8.40;3.47;;;;;;;;;;5059525;28;20560;-70
2022/12/27 10:36:27;;;;;;;4.00;2.73;;;;;;;;;;5063074;28;20530;-70
2022/12/27 10:38:57;;;;;;;4.80;3.30;;;;;;;;;;5068913;28;20472;-70
2022/12/27 10:41:33;;;;;;;6.10;4.30;;;;;;;;;;5075505;28;20554;-71
2022/12/27 10:44:00;;;;;;;8.63;5.23;;;;;;;;;;5065914;28;20491;-70
2022/12/27 10:46:30;;;;;;;8.50;3.63;;;;;;;;;;5056032;28;20461;-70
2022/12/27 10:49:02;;;;;;;10.40;4.80;;;;;;;;;;5055418;28;20541;-71
2022/12/27 10:51:42;;;;;;;4.07;3.30;;;;;;;;;;5057250;28;20469;-70
2022/12/27 10:54:22;;;;;;;5.77;3.00;;;;;;;;;;5057698;28;20465;-71
2022/12/27 10:56:50;;;;;;;13.23;6.83;;;;;;;;;;5060700;28;20551;-70
2022/12/27 10:59:20;;;;;;;8.47;4.97;;;;;;;;;;5073730;28;21074;-70
2022/12/27 11:01:50;;;;;;;5.33;2.50;;;;;;;;;;5054997;28;20503;-70
2022/12/27 11:04:19;;;;;;;6.03;4.37;;;;;;;;;;5059454;28;20556;-70
2022/12/27 11:06:48;;;;;;;4.90;3.67;;;;;;;;;;5058145;28;20475;-71
2022/12/27 11:09:24;;;;;;;5.40;2.70;;;;;;;;;;5055675;28;20539;-70
2022/12/27 11:11:52;;;;;;;5.40;3.00;;;;;;;;;;5055450;28;20473;-71
2022/12/27 11:14:23;;;;;;;5.30;3.50;;;;;;;;;;5055088;28;20482;-70
2022/12/27 11:16:51;;;;;;;3.93;2.80;;;;;;;;;;5055109;28;20450;-70
2022/12/27 11:19:23;;;;;;;5.60;3.57;;;;;;;;;;5055521;28;20765;-71
2022/12/27 11:21:56;;;;;;;5.93;3.60;;;;;;;;;;5074464;28;20440;-71
2022/12/27 11:24:25;;;;;;;7.20;3.97;;;;;;;;;;5061969;28;20484;-75
2022/12/27 11:26:54;;;;;;;5.30;3.90;;;;;;;;;;5054441;28;20469;-71
2022/12/27 11:29:23;;;;;;;8.73;4.50;;;;;;;;;;5066310;28;20475;-71
2022/12/27 11:31:52;;;;;;;13.97;4.83;;;;;;;;;;5075032;28;20464;-71
2022/12/27 11:34:22;;;;;;;7.67;4.80;;;;;;;;;;5063769;28;20465;-71
2022/12/27 11:36:51;;;;;;;4.10;3.00;;;;;;;;;;5054259;28;20736;-70
2022/12/27 11:39:37;;;;;;;7.10;4.00;;;;;;;;;;5054584;28;20781;-71
2022/12/27 11:42:14;;;;;;;9.17;3.00;;;;;;;;;;5054316;28;20449;-74
2022/12/27 11:44:47;;;;;;;7.80;4.67;;;;;;;;;;5053158;28;20457;-71
2022/12/27 11:47:21;;;;;;;4.10;2.97;;;;;;;;;;5074541;28;20853;-71
2022/12/27 11:49:54;;;;;;;5.60;2.30;;;;;;;;;;5061003;28;20962;-72
2022/12/27 11:52:47;;;;;;;3.53;2.40;;;;;;;;;;5058419;28;20540;-70
2022/12/27 11:55:31;;;;;;;6.20;2.30;;;;;;;;;;5055696;28;20473;-71
2022/12/27 11:58:27;;;;;;;15.87;4.93;;;;;;;;;;5054077;28;20488;-70
2022/12/27 12:01:03;;;;;;;4.77;3.73;;;;;;;;;;5017884;28;20515;-72
2022/12/27 12:03:51;;;;;;;6.17;2.67;;;;;;;;;;5056417;28;20535;-73
2022/12/27 12:06:22;;;;;;;4.60;3.37;;;;;;;;;;5064794;28;20472;-72
2022/12/27 12:09:16;;;;;;;4.80;3.70;;;;;;;;;;5068146;28;20488;-71
2022/12/27 12:11:59;;;;;;;4.30;2.30;;;;;;;;;;5067386;28;20960;-71
2022/12/27 12:14:47;;;;;;;7.80;2.73;;;;;;;;;;5059373;28;20477;-70
2022/12/27 12:17:26;;;;;;;10.50;4.40;;;;;;;;;;5069163;28;20921;-70
2022/12/27 12:20:19;;;;;;;5.77;4.17;;;;;;;;;;5068983;28;20768;-70
2022/12/27 12:22:58;;;;;;;7.77;4.87;;;;;;;;;;5052333;28;20468;-70
2022/12/27 12:25:44;;;;;;;4.30;2.07;;;;;;;;;;5070534;28;20836;-70
2022/12/27 12:28:29;;;;;;;11.30;2.53;;;;;;;;;;5064789;28;20453;-70
2022/12/27 12:31:05;;;;;;;6.40;3.73;;;;;;;;;;5070674;28;20491;-70
2022/12/27 12:33:41;;;;;;;7.87;2.13;;;;;;;;;;5057466;28;20511;-71
2022/12/27 12:40:04;;;;;;;9.00;3.83;;;;;;;;;;5055506;28;20454;-71
2022/12/27 12:42:38;;;;;;;2.73;1.70;;;;;;;;;;5054710;28;20879;-70
2022/12/27 12:45:41;;;;;;;3.83;2.37;;;;;;;;;;5054710;28;20474;-72
2022/12/27 12:51:22;;;;;;;10.20;6.10;;;;;;;;;;5052998;28;20461;-70
2022/12/27 12:54:16;;;;;;;7.90;3.60;;;;;;;;;;5053223;28;20464;-70
2022/12/27 12:57:14;;;;;;;8.60;3.63;;;;;;;;;;5057054;28;20558;-71
2022/12/27 12:59:58;;;;;;;10.87;5.83;;;;;;;;;;5058474;28;20469;-71
2022/12/27 13:02:36;;;;;;;9.03;4.97;;;;;;;;;;5058709;28;20544;-70
2022/12/27 13:05:12;;;;;;;6.57;2.70;;;;;;;;;;5072763;28;20464;-70
2022/12/27 13:14:14;;;;;;;8.03;3.93;;;;;;;;;;5066298;28;20927;-70
2022/12/27 13:16:46;;;;;;;6.00;4.80;;;;;;;;;;5061963;28;20480;-71
2022/12/27 13:19:24;;;;;;;12.03;6.00;;;;;;;;;;5057906;28;20466;-70
2022/12/27 13:21:59;;;;;;;5.97;4.47;;;;;;;;;;5071087;28;20457;-70
2022/12/27 13:24:49;;;;;;;8.87;4.87;;;;;;;;;;5054705;28;20469;-70
2022/12/27 13:27:42;;;;;;;8.83;5.37;;;;;;;;;;5061304;28;20888;-71
2022/12/27 13:30:32;;;;;;;14.63;5.43;;;;;;;;;;5072175;28;20452;-71
2022/12/27 13:33:07;;;;;;;6.07;4.03;;;;;;;;;;5059984;28;20568;-71
2022/12/27 13:35:44;;;;;;;8.57;5.33;;;;;;;;;;5056994;28;20476;-71
2022/12/27 13:38:28;;;;;;;6.40;4.17;;;;;;;;;;5057909;28;20476;-70
2022/12/27 13:44:44;;;;;;;11.20;4.13;;;;;;;;;;5053921;28;20812;-71
2022/12/27 13:47:32;;;;;;;9.37;4.67;;;;;;;;;;5064370;28;20465;-71
2022/12/27 13:50:24;;;;;;;7.67;4.70;;;;;;;;;;5056699;28;20461;-71
2022/12/27 13:53:01;;;;;;;8.57;6.90;;;;;;;;;;5047274;28;20977;-72
2022/12/27 13:55:39;;;;;;;7.00;5.23;;;;;;;;;;5058369;28;20554;-71
2022/12/27 13:58:36;;;;;;;9.50;4.77;;;;;;;;;;5059960;28;20457;-72
2022/12/27 14:01:18;;;;;;;13.03;6.67;;;;;;;;;;5056280;28;20471;-71
2022/12/27 14:04:03;;;;;;;13.17;5.93;;;;;;;;;;5060014;28;20553;-72
2022/12/27 14:06:55;;;;;;;8.33;3.80;;;;;;;;;;5055153;28;20452;-71
2022/12/27 14:09:50;;;;;;;6.97;3.43;;;;;;;;;;5059312;28;20457;-72
2022/12/27 14:12:49;;;;;;;7.17;5.27;;;;;;;;;;4998592;28;20594;-71
2022/12/27 14:18:43;;;;;;;7.90;5.23;;;;;;;;;;5056576;28;20479;-71
2022/12/27 14:21:20;;;;;;;5.93;4.33;;;;;;;;;;5060509;28;20448;-72
2022/12/27 14:24:02;;;;;;;7.23;4.50;;;;;;;;;;5059866;28;20539;-73
2022/12/27 14:26:50;;;;;;;9.40;4.77;;;;;;;;;;5057802;28;20528;-73
2022/12/27 14:29:38;;;;;;;3.97;2.90;;;;;;;;;;5066830;28;20852;-72
2022/12/27 14:32:35;;;;;;;8.93;7.90;;;;;;;;;;5069352;28;20472;-72
2022/12/27 14:35:29;;;;;;;5.73;3.20;;;;;;;;;;5055821;28;20485;-74
2022/12/27 14:38:17;;;;;;;9.70;5.93;;;;;;;;;;5056673;28;20461;-73
2022/12/27 14:41:01;;;;;;;9.20;6.23;;;;;;;;;;5062115;28;20537;-72
2022/12/27 14:43:58;;;;;;;11.40;7.37;;;;;;;;;;5053025;28;20488;-71
2022/12/27 14:46:46;;;;;;;9.20;7.23;;;;;;;;;;5060409;28;20460;-72
2022/12/27 14:49:45;;;;;;;8.50;5.43;;;;;;;;;;5070658;28;20461;-70
2022/12/27 14:53:00;;;;;;;11.90;6.20;;;;;;;;;;5065763;28;20445;-70
2022/12/27 14:55:46;;;;;;;10.83;6.90;;;;;;;;;;4992807;28;20484;-71
2022/12/27 14:58:44;;;;;;;7.23;4.87;;;;;;;;;;5061665;28;20453;-71
2022/12/27 15:01:26;;;;;;;8.23;5.80;;;;;;;;;;4976836;28;20726;-72
2022/12/27 15:04:03;;;;;;;10.40;7.17;;;;;;;;;;5053652;28;20467;-71
2022/12/27 15:12:56;;;;;;;14.03;6.53;;;;;;;;;;5056124;28;20436;-72
2022/12/27 15:15:29;;;;;;;14.50;8.37;;;;;;;;;;5065842;28;20480;-71
2022/12/27 15:18:06;;;;;;;12.13;7.93;;;;;;;;;;5063815;28;20484;-71
2022/12/27 15:20:49;;;;;;;14.30;6.80;;;;;;;;;;5060840;28;21160;-71
2022/12/27 15:23:27;;;;;;;13.20;8.13;;;;;;;;;;5061559;28;20580;-71
2022/12/27 15:26:01;;;;;;;11.50;7.07;;;;;;;;;;5063167;28;20452;-72
2022/12/27 15:28:40;;;;;;;11.00;7.53;;;;;;;;;;5066408;28;20464;-71
2022/12/27 15:31:23;;;;;;;12.17;7.53;;;;;;;;;;5052104;28;20449;-71
2022/12/27 15:34:05;;;;;;;9.40;6.33;;;;;;;;;;5057620;28;20466;-71
2022/12/27 15:36:38;;;;;;;6.37;5.13;;;;;;;;;;5066342;28;20537;-71
2022/12/27 15:39:43;;;;;;;17.13;7.90;;;;;;;;;;5053447;28;21053;-71
2022/12/27 15:42:35;;;;;;;9.17;4.57;;;;;;;;;;5059101;28;20468;-72
2022/12/27 15:45:41;;;;;;;7.00;4.03;;;;;;;;;;5063501;28;20476;-72
2022/12/27 15:48:43;;;;;;;10.47;7.33;;;;;;;;;;5053286;28;20748;-72
2022/12/27 15:51:18;;;;;;;9.60;4.77;;;;;;;;;;5054050;28;20455;-71
2022/12/27 15:54:08;;;;;;;9.83;5.60;;;;;;;;;;5053258;28;20647;-71
2022/12/27 15:56:50;;;;;;;9.93;5.13;;;;;;;;;;5061613;28;20484;-72
2022/12/27 15:59:40;;;;;;;18.53;10.33;;;;;;;;;;5053136;28;20453;-72
2022/12/27 16:02:31;;;;;;;13.93;5.80;;;;;;;;;;5053867;28;20449;-72
2022/12/27 16:05:11;;;;;;;14.40;6.73;;;;;;;;;;5054294;28;20457;-72
2022/12/27 16:10:59;;;;;;;9.33;5.50;;;;;;;;;;5041719;28;21102;-71
2022/12/27 16:13:36;;;;;;;12.70;4.97;;;;;;;;;;5068635;28;20457;-72
2022/12/27 16:16:12;;;;;;;9.20;4.20;;;;;;;;;;5062299;28;20481;-71
2022/12/27 16:18:51;;;;;;;8.63;4.30;;;;;;;;;;5055563;28;20451;-71
2022/12/27 16:21:22;;;;;;;7.17;4.60;;;;;;;;;;5065832;28;20445;-71
2022/12/27 16:23:51;;;;;;;11.23;5.60;;;;;;;;;;5054023;28;20473;-71
2022/12/27 16:26:25;;;;;;;8.57;4.20;;;;;;;;;;5073379;28;20445;-71
2022/12/27 16:28:55;;;;;;;14.43;5.50;;;;;;;;;;5063236;28;20474;-71
2022/12/27 16:31:27;;;;;;;12.80;4.47;;;;;;;;;;5072057;28;20448;-71
2022/12/27 16:34:46;;;;;;;10.70;4.77;;;;;;;;;;5069362;28;21180;-72
2022/12/27 16:37:33;;;;;;;9.27;5.23;;;;;;;;;;5058601;28;20504;-70
2022/12/27 16:40:23;;;;;;;14.63;4.17;;;;;;;;;;5062209;28;20444;-70
2022/12/27 16:43:13;;;;;;;9.27;4.80;;;;;;;;;;5058754;28;20853;-71
2022/12/27 16:45:53;;;;;;;10.57;4.63;;;;;;;;;;5061742;28;20838;-70
2022/12/27 16:48:37;;;;;;;7.13;4.70;;;;;;;;;;5058608;28;20449;-71
2022/12/27 16:51:18;;;;;;;7.00;4.00;;;;;;;;;;5057565;28;20450;-70
2022/12/27 16:54:01;;;;;;;10.30;5.03;;;;;;;;;;5064218;28;20506;-72
2022/12/27 16:56:30;;;;;;;13.10;5.90;;;;;;;;;;5067636;28;20538;-72
2022/12/27 16:58:58;;;;;;;10.10;5.17;;;;;;;;;;5064942;28;20468;-72
2022/12/27 17:01:53;;;;;;;7.77;4.10;;;;;;;;;;5064909;28;20840;-72
2022/12/27 17:04:52;;;;;;;17.43;6.30;;;;;;;;;;5072986;28;20561;-72
2022/12/27 17:07:36;;;;;;;10.57;5.27;;;;;;;;;;5015534;28;20447;-72
2022/12/27 17:10:22;;;;;;;7.50;4.70;;;;;;;;;;5068935;28;20460;-72
2022/12/27 17:12:53;;;;;;;7.80;6.20;;;;;;;;;;5070910;28;20459;-70
2022/12/27 17:15:22;;;;;;;12.40;5.83;;;;;;;;;;5075600;28;20579;-72
2022/12/27 17:17:54;;;;;;;11.13;5.53;;;;;;;;;;5057686;28;20489;-71
2022/12/27 17:20:24;;;;;;;9.00;4.53;;;;;;;;;;5059068;28;20453;-71
2022/12/27 17:22:56;;;;;;;10.47;6.63;;;;;;;;;;5058661;28;20457;-71
2022/12/27 17:25:40;;;;;;;7.40;4.80;;;;;;;;;;5061171;28;20453;-72
2022/12/27 17:28:18;;;;;;;7.87;4.83;;;;;;;;;;5064282;28;20452;-71
2022/12/27 17:30:53;;;;;;;10.47;6.30;;;;;;;;;;5061666;28;20500;-71
2022/12/27 17:33:30;;;;;;;15.70;7.10;;;;;;;;;;5062546;28;20456;-71
2022/12/27 17:36:24;;;;;;;16.40;6.23;;;;;;;;;;5076728;28;20474;-71
2022/12/27 17:39:29;;;;;;;18.33;6.23;;;;;;;;;;5059059;28;20885;-70
2022/12/27 17:44:55;;;;;;;7.90;4.80;;;;;;;;;;5056820;28;20437;-71
2022/12/27 17:47:42;;;;;;;13.17;7.20;;;;;;;;;;5059480;28;20720;-71
2022/12/27 17:50:19;;;;;;;13.20;8.33;;;;;;;;;;5059632;28;20526;-72